Terminal Aerodrome Forecast
Issued by NWS

Home | Current Version | Previous Version | Text Only | Print | Product List | Glossary On
Versions: 1 2 3 4 5 6 7 8 9 10 11 12 13
000
FTUS45 KABQ 191100
TAFAEG
TAF
KAEG 191129Z 1912/2012 33005KT P6SM FEW030 BKN050
     FM191600 36007KT P6SM FEW050 BKN100
     FM200100 VRB05KT P6SM SCT100=

USA.gov is the U.S. government's official web portal to all federal, state and local government web resources and services.